sensor_id;sensor_type;location;lat;lon;timestamp;temperature;humidity
23713;DHT22;12035;49.978;8.298;2022-12-18T00:01:25;-3.60;69.50
23713;DHT22;12035;49.978;8.298;2022-12-18T00:06:24;-3.70;69.40
23713;DHT22;12035;49.978;8.298;2022-12-18T00:11:24;-3.70;69.50
23713;DHT22;12035;49.978;8.298;2022-12-18T00:16:25;-3.70;69.90
23713;DHT22;12035;49.978;8.298;2022-12-18T00:21:23;-3.80;68.90
23713;DHT22;12035;49.978;8.298;2022-12-18T00:26:23;-3.80;68.80
23713;DHT22;12035;49.978;8.298;2022-12-18T00:31:24;-3.90;68.80
23713;DHT22;12035;49.978;8.298;2022-12-18T00:36:23;-3.90;69.10
23713;DHT22;12035;49.978;8.298;2022-12-18T00:41:22;-3.90;69.00
23713;DHT22;12035;49.978;8.298;2022-12-18T00:46:39;-3.80;69.30
23713;DHT22;12035;49.978;8.298;2022-12-18T00:51:37;-3.70;69.40
23713;DHT22;12035;49.978;8.298;2022-12-18T00:56:35;-3.70;69.20
23713;DHT22;12035;49.978;8.298;2022-12-18T01:01:33;-3.60;69.10
23713;DHT22;12035;49.978;8.298;2022-12-18T01:06:32;-3.60;68.80
23713;DHT22;12035;49.978;8.298;2022-12-18T01:11:29;-3.60;68.60
23713;DHT22;12035;49.978;8.298;2022-12-18T01:16:26;-3.70;68.60
23713;DHT22;12035;49.978;8.298;2022-12-18T01:21:23;-3.70;68.70
23713;DHT22;12035;49.978;8.298;2022-12-18T01:26:22;-3.70;69.10
23713;DHT22;12035;49.978;8.298;2022-12-18T01:31:23;-3.70;68.70
23713;DHT22;12035;49.978;8.298;2022-12-18T01:36:23;-3.70;68.50
23713;DHT22;12035;49.978;8.298;2022-12-18T01:41:24;-3.80;68.40
23713;DHT22;12035;49.978;8.298;2022-12-18T01:46:23;-3.80;68.50
23713;DHT22;12035;49.978;8.298;2022-12-18T01:51:21;-3.90;68.60
23713;DHT22;12035;49.978;8.298;2022-12-18T01:56:20;-4.00;68.60
23713;DHT22;12035;49.978;8.298;2022-12-18T02:01:20;-4.00;68.80
23713;DHT22;12035;49.978;8.298;2022-12-18T02:06:21;-3.90;69.00
23713;DHT22;12035;49.978;8.298;2022-12-18T02:11:35;-3.90;68.90
23713;DHT22;12035;49.978;8.298;2022-12-18T02:16:39;-3.80;68.90
23713;DHT22;12035;49.978;8.298;2022-12-18T02:21:48;-3.80;68.70
23713;DHT22;12035;49.978;8.298;2022-12-18T02:26:50;-3.80;68.70
23713;DHT22;12035;49.978;8.298;2022-12-18T02:31:52;-3.70;68.60
23713;DHT22;12035;49.978;8.298;2022-12-18T02:36:51;-3.70;68.40
23713;DHT22;12035;49.978;8.298;2022-12-18T02:41:51;-3.60;68.30
23713;DHT22;12035;49.978;8.298;2022-12-18T02:46:50;-3.60;68.30
23713;DHT22;12035;49.978;8.298;2022-12-18T02:51:53;-3.60;68.20
23713;DHT22;12035;49.978;8.298;2022-12-18T02:56:57;-3.60;68.10
23713;DHT22;12035;49.978;8.298;2022-12-18T03:01:58;-3.60;68.00
23713;DHT22;12035;49.978;8.298;2022-12-18T03:07:01;-3.70;67.80
23713;DHT22;12035;49.978;8.298;2022-12-18T03:12:07;-3.70;67.90
23713;DHT22;12035;49.978;8.298;2022-12-18T03:17:24;-3.80;67.80
23713;DHT22;12035;49.978;8.298;2022-12-18T03:22:24;-3.90;67.80
23713;DHT22;12035;49.978;8.298;2022-12-18T03:27:25;-4.00;67.90
23713;DHT22;12035;49.978;8.298;2022-12-18T03:32:26;-4.00;68.00
23713;DHT22;12035;49.978;8.298;2022-12-18T03:37:26;-4.10;68.00
23713;DHT22;12035;49.978;8.298;2022-12-18T03:42:28;-4.10;68.10
23713;DHT22;12035;49.978;8.298;2022-12-18T03:47:33;-4.00;68.40
23713;DHT22;12035;49.978;8.298;2022-12-18T03:52:36;-4.00;68.40
23713;DHT22;12035;49.978;8.298;2022-12-18T03:57:37;-4.00;68.40
23713;DHT22;12035;49.978;8.298;2022-12-18T04:02:35;-4.00;68.30
23713;DHT22;12035;49.978;8.298;2022-12-18T04:07:35;-4.00;68.30
23713;DHT22;12035;49.978;8.298;2022-12-18T04:12:33;-4.10;68.30
23713;DHT22;12035;49.978;8.298;2022-12-18T04:17:31;-4.10;68.50
23713;DHT22;12035;49.978;8.298;2022-12-18T04:22:28;-4.20;68.70
23713;DHT22;12035;49.978;8.298;2022-12-18T04:27:25;-4.20;68.90
23713;DHT22;12035;49.978;8.298;2022-12-18T04:32:22;-4.20;69.10
23713;DHT22;12035;49.978;8.298;2022-12-18T04:37:21;-4.20;69.30
23713;DHT22;12035;49.978;8.298;2022-12-18T04:42:18;-4.30;69.50
23713;DHT22;12035;49.978;8.298;2022-12-18T04:47:15;-4.30;69.80
23713;DHT22;12035;49.978;8.298;2022-12-18T04:52:12;-4.30;70.10
23713;DHT22;12035;49.978;8.298;2022-12-18T04:57:10;-4.20;70.40
23713;DHT22;12035;49.978;8.298;2022-12-18T05:02:07;-4.20;70.50
23713;DHT22;12035;49.978;8.298;2022-12-18T05:07:05;-4.20;70.60
23713;DHT22;12035;49.978;8.298;2022-12-18T05:12:02;-4.20;70.50
23713;DHT22;12035;49.978;8.298;2022-12-18T05:17:00;-4.20;70.50
23713;DHT22;12035;49.978;8.298;2022-12-18T05:21:57;-4.20;70.50
23713;DHT22;12035;49.978;8.298;2022-12-18T05:26:54;-4.20;71.30
23713;DHT22;12035;49.978;8.298;2022-12-18T05:31:52;-4.20;70.50
23713;DHT22;12035;49.978;8.298;2022-12-18T05:36:50;-4.20;70.40
23713;DHT22;12035;49.978;8.298;2022-12-18T05:41:47;-4.10;70.60
23713;DHT22;12035;49.978;8.298;2022-12-18T05:46:44;-4.20;70.50
23713;DHT22;12035;49.978;8.298;2022-12-18T05:51:41;-4.10;70.60
23713;DHT22;12035;49.978;8.298;2022-12-18T05:56:40;-4.10;70.60
23713;DHT22;12035;49.978;8.298;2022-12-18T06:01:37;-4.10;70.70
23713;DHT22;12035;49.978;8.298;2022-12-18T06:06:34;-4.20;70.70
23713;DHT22;12035;49.978;8.298;2022-12-18T06:11:32;-4.10;70.80
23713;DHT22;12035;49.978;8.298;2022-12-18T06:16:31;-4.20;70.80
23713;DHT22;12035;49.978;8.298;2022-12-18T06:21:29;-4.20;70.80
23713;DHT22;12035;49.978;8.298;2022-12-18T06:26:26;-4.20;70.90
23713;DHT22;12035;49.978;8.298;2022-12-18T06:31:23;-4.10;71.00
23713;DHT22;12035;49.978;8.298;2022-12-18T06:36:22;-4.10;71.10
23713;DHT22;12035;49.978;8.298;2022-12-18T06:41:20;-4.10;71.10
23713;DHT22;12035;49.978;8.298;2022-12-18T06:46:17;-4.20;71.00
23713;DHT22;12035;49.978;8.298;2022-12-18T06:51:17;-4.20;71.00
23713;DHT22;12035;49.978;8.298;2022-12-18T06:56:16;-4.20;71.00
23713;DHT22;12035;49.978;8.298;2022-12-18T07:01:13;-4.20;71.00
23713;DHT22;12035;49.978;8.298;2022-12-18T07:06:14;-4.20;71.00
23713;DHT22;12035;49.978;8.298;2022-12-18T07:11:13;-4.20;71.20
23713;DHT22;12035;49.978;8.298;2022-12-18T07:16:13;-4.20;71.20
23713;DHT22;12035;49.978;8.298;2022-12-18T07:21:13;-4.20;71.30
23713;DHT22;12035;49.978;8.298;2022-12-18T07:26:13;-4.20;72.10
23713;DHT22;12035;49.978;8.298;2022-12-18T07:31:14;-4.20;71.40
23713;DHT22;12035;49.978;8.298;2022-12-18T07:36:13;-4.20;71.60
23713;DHT22;12035;49.978;8.298;2022-12-18T07:41:12;-4.20;71.70
23713;DHT22;12035;49.978;8.298;2022-12-18T07:46:13;-4.10;71.90
23713;DHT22;12035;49.978;8.298;2022-12-18T07:51:12;-4.10;71.90
23713;DHT22;12035;49.978;8.298;2022-12-18T07:56:11;-4.10;72.00
23713;DHT22;12035;49.978;8.298;2022-12-18T08:01:11;-4.00;72.10
23713;DHT22;12035;49.978;8.298;2022-12-18T08:06:09;-3.90;72.20
23713;DHT22;12035;49.978;8.298;2022-12-18T08:11:06;-3.90;72.20
23713;DHT22;12035;49.978;8.298;2022-12-18T08:16:05;-3.80;72.10
23713;DHT22;12035;49.978;8.298;2022-12-18T08:21:12;-3.70;72.00
23713;DHT22;12035;49.978;8.298;2022-12-18T08:26:11;-3.60;72.10
23713;DHT22;12035;49.978;8.298;2022-12-18T08:31:09;-3.60;71.80
23713;DHT22;12035;49.978;8.298;2022-12-18T08:36:07;-3.60;71.70
23713;DHT22;12035;49.978;8.298;2022-12-18T08:41:08;-3.50;71.80
23713;DHT22;12035;49.978;8.298;2022-12-18T08:46:06;-3.50;71.70
23713;DHT22;12035;49.978;8.298;2022-12-18T08:51:03;-3.50;71.70
23713;DHT22;12035;49.978;8.298;2022-12-18T08:56:01;-3.50;71.80
23713;DHT22;12035;49.978;8.298;2022-12-18T09:01:01;-3.50;71.90
23713;DHT22;12035;49.978;8.298;2022-12-18T09:05:59;-3.50;72.00
23713;DHT22;12035;49.978;8.298;2022-12-18T09:10:56;-3.50;72.00
23713;DHT22;12035;49.978;8.298;2022-12-18T09:15:54;-3.40;72.00
23713;DHT22;12035;49.978;8.298;2022-12-18T09:20:53;-3.40;72.00
23713;DHT22;12035;49.978;8.298;2022-12-18T09:25:50;-3.40;71.90
23713;DHT22;12035;49.978;8.298;2022-12-18T09:30:48;-3.40;71.90
23713;DHT22;12035;49.978;8.298;2022-12-18T09:35:46;-3.30;72.10
23713;DHT22;12035;49.978;8.298;2022-12-18T09:40:48;-3.20;72.30
23713;DHT22;12035;49.978;8.298;2022-12-18T09:45:49;-3.10;72.40
23713;DHT22;12035;49.978;8.298;2022-12-18T09:50:50;-2.90;72.50
23713;DHT22;12035;49.978;8.298;2022-12-18T09:55:51;-2.70;72.40
23713;DHT22;12035;49.978;8.298;2022-12-18T10:00:51;-2.60;71.90
23713;DHT22;12035;49.978;8.298;2022-12-18T10:05:56;-2.50;71.60
23713;DHT22;12035;49.978;8.298;2022-12-18T10:11:11;-2.40;71.60
23713;DHT22;12035;49.978;8.298;2022-12-18T10:16:23;-2.30;71.60
23713;DHT22;12035;49.978;8.298;2022-12-18T10:21:32;-2.10;71.40
23713;DHT22;12035;49.978;8.298;2022-12-18T10:26:40;-1.90;71.30
23713;DHT22;12035;49.978;8.298;2022-12-18T10:31:38;-1.70;71.20
23713;DHT22;12035;49.978;8.298;2022-12-18T10:36:38;-1.60;70.90
23713;DHT22;12035;49.978;8.298;2022-12-18T10:41:35;-1.50;70.00
23713;DHT22;12035;49.978;8.298;2022-12-18T10:46:33;-1.40;69.70
23713;DHT22;12035;49.978;8.298;2022-12-18T10:51:33;-1.40;69.30
23713;DHT22;12035;49.978;8.298;2022-12-18T10:56:33;-1.30;69.40
23713;DHT22;12035;49.978;8.298;2022-12-18T11:01:46;-1.20;70.30
23713;DHT22;12035;49.978;8.298;2022-12-18T11:06:54;-1.10;69.10
23713;DHT22;12035;49.978;8.298;2022-12-18T11:11:54;-1.10;69.00
23713;DHT22;12035;49.978;8.298;2022-12-18T11:16:55;-1.00;69.10
23713;DHT22;12035;49.978;8.298;2022-12-18T11:21:53;-0.80;68.90
23713;DHT22;12035;49.978;8.298;2022-12-18T11:26:51;-0.70;68.30
23713;DHT22;12035;49.978;8.298;2022-12-18T11:31:48;-0.70;68.00
23713;DHT22;12035;49.978;8.298;2022-12-18T11:36:47;-0.60;68.00
23713;DHT22;12035;49.978;8.298;2022-12-18T11:41:50;-0.50;68.00
23713;DHT22;12035;49.978;8.298;2022-12-18T11:47:15;-0.40;67.80
23713;DHT22;12035;49.978;8.298;2022-12-18T11:52:21;-0.40;67.60
23713;DHT22;12035;49.978;8.298;2022-12-18T11:57:29;-0.30;67.50
23713;DHT22;12035;49.978;8.298;2022-12-18T12:08:17;-0.20;68.10
23713;DHT22;12035;49.978;8.298;2022-12-18T12:13:27;-0.10;67.40
23713;DHT22;12035;49.978;8.298;2022-12-18T12:18:37;-0.10;67.10
23713;DHT22;12035;49.978;8.298;2022-12-18T12:23:46;-0.10;67.30
23713;DHT22;12035;49.978;8.298;2022-12-18T12:29:01;0.00;67.50
23713;DHT22;12035;49.978;8.298;2022-12-18T12:34:16;0.10;67.30
23713;DHT22;12035;49.978;8.298;2022-12-18T12:39:22;0.10;66.60
23713;DHT22;12035;49.978;8.298;2022-12-18T12:44:24;0.10;66.30
23713;DHT22;12035;49.978;8.298;2022-12-18T12:49:25;0.00;66.00
23713;DHT22;12035;49.978;8.298;2022-12-18T12:54:26;0.00;65.90
23713;DHT22;12035;49.978;8.298;2022-12-18T12:59:27;-0.10;65.90
23713;DHT22;12035;49.978;8.298;2022-12-18T13:04:34;-0.20;66.00
23713;DHT22;12035;49.978;8.298;2022-12-18T13:15:36;-0.20;66.10
23713;DHT22;12035;49.978;8.298;2022-12-18T13:20:35;-0.30;66.00
23713;DHT22;12035;49.978;8.298;2022-12-18T13:25:36;-0.30;66.00
23713;DHT22;12035;49.978;8.298;2022-12-18T13:30:54;-0.40;66.10
23713;DHT22;12035;49.978;8.298;2022-12-18T13:36:12;-0.40;66.90
23713;DHT22;12035;49.978;8.298;2022-12-18T13:41:26;-0.40;66.30
23713;DHT22;12035;49.978;8.298;2022-12-18T13:46:27;-0.50;66.20
23713;DHT22;12035;49.978;8.298;2022-12-18T13:51:25;-0.50;66.30
23713;DHT22;12035;49.978;8.298;2022-12-18T13:56:26;-0.60;66.40
23713;DHT22;12035;49.978;8.298;2022-12-18T14:01:24;-0.60;66.50
23713;DHT22;12035;49.978;8.298;2022-12-18T14:06:21;-0.60;66.80
23713;DHT22;12035;49.978;8.298;2022-12-18T14:11:22;-0.70;66.90
23713;DHT22;12035;49.978;8.298;2022-12-18T14:16:22;-0.70;67.00
23713;DHT22;12035;49.978;8.298;2022-12-18T14:21:22;-0.70;67.10
23713;DHT22;12035;49.978;8.298;2022-12-18T14:26:27;-0.70;67.30
23713;DHT22;12035;49.978;8.298;2022-12-18T14:31:27;-0.70;67.40
23713;DHT22;12035;49.978;8.298;2022-12-18T14:36:27;-0.70;67.50
23713;DHT22;12035;49.978;8.298;2022-12-18T14:41:26;-0.70;67.60
23713;DHT22;12035;49.978;8.298;2022-12-18T14:46:30;-0.70;67.70
23713;DHT22;12035;49.978;8.298;2022-12-18T14:51:31;-0.70;67.80
23713;DHT22;12035;49.978;8.298;2022-12-18T14:56:33;-0.70;67.80
23713;DHT22;12035;49.978;8.298;2022-12-18T15:01:33;-0.70;67.90
23713;DHT22;12035;49.978;8.298;2022-12-18T15:06:33;-0.80;68.00
23713;DHT22;12035;49.978;8.298;2022-12-18T15:11:36;-0.70;68.10
23713;DHT22;12035;49.978;8.298;2022-12-18T15:16:42;-0.70;68.20
23713;DHT22;12035;49.978;8.298;2022-12-18T15:21:42;-0.80;68.30
23713;DHT22;12035;49.978;8.298;2022-12-18T15:26:41;-0.80;68.40
23713;DHT22;12035;49.978;8.298;2022-12-18T15:31:39;-0.70;68.60
23713;DHT22;12035;49.978;8.298;2022-12-18T15:36:37;-0.80;68.60
23713;DHT22;12035;49.978;8.298;2022-12-18T15:41:35;-0.80;68.70
23713;DHT22;12035;49.978;8.298;2022-12-18T15:46:33;-0.80;68.90
23713;DHT22;12035;49.978;8.298;2022-12-18T15:51:33;-0.80;69.00
23713;DHT22;12035;49.978;8.298;2022-12-18T15:56:31;-0.80;69.10
23713;DHT22;12035;49.978;8.298;2022-12-18T16:01:49;-0.80;69.10
23713;DHT22;12035;49.978;8.298;2022-12-18T16:06:48;-0.80;69.30
23713;DHT22;12035;49.978;8.298;2022-12-18T16:11:47;-0.80;69.30
23713;DHT22;12035;49.978;8.298;2022-12-18T16:16:45;-0.70;69.50
23713;DHT22;12035;49.978;8.298;2022-12-18T16:21:46;-0.70;69.50
23713;DHT22;12035;49.978;8.298;2022-12-18T16:26:44;-0.70;69.50
23713;DHT22;12035;49.978;8.298;2022-12-18T16:31:41;-0.70;70.30
23713;DHT22;12035;49.978;8.298;2022-12-18T16:36:39;-0.70;69.60
23713;DHT22;12035;49.978;8.298;2022-12-18T16:41:36;-0.70;69.60
23713;DHT22;12035;49.978;8.298;2022-12-18T16:46:34;-0.70;69.60
23713;DHT22;12035;49.978;8.298;2022-12-18T16:51:31;-0.70;69.80
23713;DHT22;12035;49.978;8.298;2022-12-18T16:56:31;-0.60;70.00
23713;DHT22;12035;49.978;8.298;2022-12-18T17:01:30;-0.60;70.00
23713;DHT22;12035;49.978;8.298;2022-12-18T17:06:29;-0.60;70.00
23713;DHT22;12035;49.978;8.298;2022-12-18T17:11:28;-0.60;70.10
23713;DHT22;12035;49.978;8.298;2022-12-18T17:16:28;-0.60;70.10
23713;DHT22;12035;49.978;8.298;2022-12-18T17:21:25;-0.60;70.20
23713;DHT22;12035;49.978;8.298;2022-12-18T17:26:22;-0.60;70.30
23713;DHT22;12035;49.978;8.298;2022-12-18T17:31:22;-0.50;70.30
23713;DHT22;12035;49.978;8.298;2022-12-18T17:36:20;-0.50;70.40
23713;DHT22;12035;49.978;8.298;2022-12-18T17:41:18;-0.50;70.40
23713;DHT22;12035;49.978;8.298;2022-12-18T17:46:16;-0.60;70.40
23713;DHT22;12035;49.978;8.298;2022-12-18T17:51:16;-0.50;70.60
23713;DHT22;12035;49.978;8.298;2022-12-18T17:56:15;-0.50;70.60
23713;DHT22;12035;49.978;8.298;2022-12-18T18:01:16;-0.50;71.40
23713;DHT22;12035;49.978;8.298;2022-12-18T18:06:16;-0.40;70.80
23713;DHT22;12035;49.978;8.298;2022-12-18T18:11:15;-0.40;70.80
23713;DHT22;12035;49.978;8.298;2022-12-18T18:16:33;-0.40;70.80
23713;DHT22;12035;49.978;8.298;2022-12-18T18:21:32;-0.40;70.80
23713;DHT22;12035;49.978;8.298;2022-12-18T18:26:32;-0.30;70.80
23713;DHT22;12035;49.978;8.298;2022-12-18T18:31:30;-0.30;70.90
23713;DHT22;12035;49.978;8.298;2022-12-18T18:36:29;-0.30;70.80
23713;DHT22;12035;49.978;8.298;2022-12-18T18:41:27;-0.30;70.80
23713;DHT22;12035;49.978;8.298;2022-12-18T18:46:25;-0.30;71.00
23713;DHT22;12035;49.978;8.298;2022-12-18T18:51:22;-0.30;71.00
23713;DHT22;12035;49.978;8.298;2022-12-18T18:56:22;-0.30;71.10
23713;DHT22;12035;49.978;8.298;2022-12-18T19:01:23;-0.30;71.10
23713;DHT22;12035;49.978;8.298;2022-12-18T19:06:22;-0.30;71.10
23713;DHT22;12035;49.978;8.298;2022-12-18T19:11:21;-0.30;71.20
23713;DHT22;12035;49.978;8.298;2022-12-18T19:16:38;-0.30;71.20
23713;DHT22;12035;49.978;8.298;2022-12-18T19:21:35;-0.30;71.20
23713;DHT22;12035;49.978;8.298;2022-12-18T19:26:33;-0.20;71.30
23713;DHT22;12035;49.978;8.298;2022-12-18T19:31:30;-0.20;71.30
23713;DHT22;12035;49.978;8.298;2022-12-18T19:36:29;-0.20;71.30
23713;DHT22;12035;49.978;8.298;2022-12-18T19:41:27;-0.20;71.30
23713;DHT22;12035;49.978;8.298;2022-12-18T19:46:25;-0.20;72.10
23713;DHT22;12035;49.978;8.298;2022-12-18T19:51:24;-0.20;71.30
23713;DHT22;12035;49.978;8.298;2022-12-18T19:56:25;-0.20;71.40
23713;DHT22;12035;49.978;8.298;2022-12-18T20:01:23;-0.20;71.50
23713;DHT22;12035;49.978;8.298;2022-12-18T20:06:24;-0.10;71.50
23713;DHT22;12035;49.978;8.298;2022-12-18T20:11:24;-0.10;71.50
23713;DHT22;12035;49.978;8.298;2022-12-18T20:16:21;-0.10;71.50
23713;DHT22;12035;49.978;8.298;2022-12-18T20:21:20;-0.10;71.50
23713;DHT22;12035;49.978;8.298;2022-12-18T20:26:19;-0.10;71.50
23713;DHT22;12035;49.978;8.298;2022-12-18T20:31:18;0.00;71.50
23713;DHT22;12035;49.978;8.298;2022-12-18T20:36:17;0.00;71.50
23713;DHT22;12035;49.978;8.298;2022-12-18T20:41:17;0.00;71.40
23713;DHT22;12035;49.978;8.298;2022-12-18T20:46:17;0.00;71.40
23713;DHT22;12035;49.978;8.298;2022-12-18T20:51:16;0.00;71.50
23713;DHT22;12035;49.978;8.298;2022-12-18T20:56:15;0.00;71.50
23713;DHT22;12035;49.978;8.298;2022-12-18T21:01:15;0.10;71.60
23713;DHT22;12035;49.978;8.298;2022-12-18T21:06:16;0.10;71.70
23713;DHT22;12035;49.978;8.298;2022-12-18T21:11:22;0.10;71.70
23713;DHT22;12035;49.978;8.298;2022-12-18T21:16:41;0.10;71.70
23713;DHT22;12035;49.978;8.298;2022-12-18T21:21:39;0.10;71.70
23713;DHT22;12035;49.978;8.298;2022-12-18T21:26:38;0.10;71.70
23713;DHT22;12035;49.978;8.298;2022-12-18T21:31:36;0.20;71.80
23713;DHT22;12035;49.978;8.298;2022-12-18T21:36:35;0.20;71.80
23713;DHT22;12035;49.978;8.298;2022-12-18T21:41:32;0.20;71.80
23713;DHT22;12035;49.978;8.298;2022-12-18T21:46:47;0.20;71.80
23713;DHT22;12035;49.978;8.298;2022-12-18T21:51:47;0.10;71.70
23713;DHT22;12035;49.978;8.298;2022-12-18T21:56:47;0.10;71.80
23713;DHT22;12035;49.978;8.298;2022-12-18T22:01:45;0.10;71.80
23713;DHT22;12035;49.978;8.298;2022-12-18T22:06:43;0.20;71.80
23713;DHT22;12035;49.978;8.298;2022-12-18T22:11:42;0.20;72.00
23713;DHT22;12035;49.978;8.298;2022-12-18T22:16:40;0.20;72.00
23713;DHT22;12035;49.978;8.298;2022-12-18T22:21:39;0.20;71.90
23713;DHT22;12035;49.978;8.298;2022-12-18T22:26:37;0.20;71.90
23713;DHT22;12035;49.978;8.298;2022-12-18T22:31:36;0.30;72.00
23713;DHT22;12035;49.978;8.298;2022-12-18T22:36:35;0.30;72.00
23713;DHT22;12035;49.978;8.298;2022-12-18T22:41:33;0.30;72.00
23713;DHT22;12035;49.978;8.298;2022-12-18T22:46:33;0.30;71.90
23713;DHT22;12035;49.978;8.298;2022-12-18T22:51:34;0.30;71.90
23713;DHT22;12035;49.978;8.298;2022-12-18T22:56:32;0.30;71.80
23713;DHT22;12035;49.978;8.298;2022-12-18T23:01:30;0.30;71.80
23713;DHT22;12035;49.978;8.298;2022-12-18T23:06:28;0.30;71.90
23713;DHT22;12035;49.978;8.298;2022-12-18T23:11:26;0.30;71.90
23713;DHT22;12035;49.978;8.298;2022-12-18T23:16:23;0.30;72.00
23713;DHT22;12035;49.978;8.298;2022-12-18T23:21:21;0.30;71.90
23713;DHT22;12035;49.978;8.298;2022-12-18T23:26:22;0.40;71.90
23713;DHT22;12035;49.978;8.298;2022-12-18T23:31:21;0.40;72.70
23713;DHT22;12035;49.978;8.298;2022-12-18T23:36:20;0.40;71.70
23713;DHT22;12035;49.978;8.298;2022-12-18T23:41:20;0.40;71.70
23713;DHT22;12035;49.978;8.298;2022-12-18T23:46:20;0.40;71.60
23713;DHT22;12035;49.978;8.298;2022-12-18T23:51:21;0.40;71.60
23713;DHT22;12035;49.978;8.298;2022-12-18T23:56:21;0.50;71.50
